Pedhoulas Trader — C4JM2 — position and weather

sailwx.info

Track history (hours):
 
Tides and Currents Weather Stations Pressure Air Temp Water Temp Dewpoint Dewpoint Depression Visibility Wind Speed Wind Dir Waves Ship Positions

Pedhoulas Trader

Last reported at 2016-Jun-05 11:13 UTC. Time now 2016-Jul-01 19:06 UTC.
Position N 02°21' E 101°48'.
Warning: this ship's position is 26 days out of date.

Length 229 m; draft 13.1 m.

Type: Cargo ship. MMSI: 210073000.

Date/timePositionNaut miles runAvg speedWind from/ knotsBaromVisibWave heightAir tempDewpointWater temp
2016-Jun-05 11:13N 02°21' E 101°48'6 9.2
2016-Jun-05 10:33N 02°17' E 101°52'10 9.9
2016-Jun-05 09:32N 02°11' E 102°00'1111.2
2016-Jun-05 08:32N 02°03' E 102°09'1212.1
2016-Jun-05 07:32N 01°56' E 102°18'1212.5
2016-Jun-05 06:33N 01°50' E 102°29'1212.4
2016-Jun-05 05:33N 01°45' E 102°40'6510.4
2016-Jun-04 23:15N 01°12' E 103°37'710.3
2016-Jun-04 22:33N 01°09' E 103°43'8 8.4
2016-Jun-04 21:34N 01°12' E 103°51'6 5.9
2016-Jun-04 20:33N 01°15' E 103°56'2 1.7
2016-Jun-04 19:28N 01°17' E 103°56'0 0.0
2016-Jun-04 18:28N 01°17' E 103°56'0 0.0
2016-Jun-04 17:28N 01°17' E 103°56'0 0.0
2016-Jun-04 16:31N 01°17' E 103°56'0 0.1
2016-Jun-04 15:28N 01°17' E 103°56'0 0.2
2016-Jun-04 14:22N 01°17' E 103°56'0 0.0
2016-Jun-04 13:22N 01°17' E 103°56'0 0.0
2016-Jun-04 12:31N 01°17' E 103°56'0 0.0
2016-Jun-04 11:22N 01°17' E 103°56'0 0.0
2016-Jun-04 10:16N 01°17' E 103°56'0 0.0
2016-Jun-04 09:31N 01°17' E 103°56'0 0.0
2016-Jun-04 08:22N 01°17' E 103°56'0 0.0
2016-Jun-04 07:22N 01°17' E 103°56'0 0.1
2016-Jun-04 06:25N 01°17' E 103°56'0 0.0
2016-Jun-04 05:31N 01°17' E 103°56'0 0.0
2016-Jun-04 04:28N 01°17' E 103°56'0 0.0
2016-Jun-04 03:31N 01°17' E 103°56'0 0.0
2016-Jun-04 02:16N 01°17' E 103°56'0 0.0
2016-Jun-04 01:31N 01°16' E 103°56'3 3.1
2016-Jun-04 00:33N 01°16' E 103°59'7 7.1
2016-Jun-03 23:33N 01°16' E 104°06'  
2016-May-29 00:29N 23°41' E 118°19'1211.8
2016-May-28 23:30N 23°48' E 118°28'1211.7
2016-May-28 22:28N 23°56' E 118°38'10110.2
2016-May-28 12:33N 25°03' E 120°03'  
Track history (hours):
 
Tides and Currents Weather Stations Pressure Air Temp Water Temp Dewpoint Dewpoint Depression Visibility Wind Speed Wind Dir Waves Ship Positions

Pedhoulas Trader

Last reported at 2016-Jun-05 11:13 UTC. Time now 2016-Jul-01 19:06 UTC.
Position N 02°21' E 101°48'.
Warning: this ship's position is 26 days out of date.

Length 229 m; draft 13.1 m.

Type: Cargo ship. MMSI: 210073000.

Date/timePositionNaut miles runAvg speedWind from/ knotsBaromVisibWave heightAir tempDewpointWater temp
2016-Jun-05 11:13N 02°21' E 101°48'6 9.2
2016-Jun-05 10:33N 02°17' E 101°52'10 9.9
2016-Jun-05 09:32N 02°11' E 102°00'1111.2
2016-Jun-05 08:32N 02°03' E 102°09'1212.1
2016-Jun-05 07:32N 01°56' E 102°18'1212.5
2016-Jun-05 06:33N 01°50' E 102°29'1212.4
2016-Jun-05 05:33N 01°45' E 102°40'6510.4
2016-Jun-04 23:15N 01°12' E 103°37'710.3
2016-Jun-04 22:33N 01°09' E 103°43'8 8.4
2016-Jun-04 21:34N 01°12' E 103°51'6 5.9
2016-Jun-04 20:33N 01°15' E 103°56'2 1.7
2016-Jun-04 19:28N 01°17' E 103°56'0 0.0
2016-Jun-04 18:28N 01°17' E 103°56'0 0.0
2016-Jun-04 17:28N 01°17' E 103°56'0 0.0
2016-Jun-04 16:31N 01°17' E 103°56'0 0.1
2016-Jun-04 15:28N 01°17' E 103°56'0 0.2
2016-Jun-04 14:22N 01°17' E 103°56'0 0.0
2016-Jun-04 13:22N 01°17' E 103°56'0 0.0
2016-Jun-04 12:31N 01°17' E 103°56'0 0.0
2016-Jun-04 11:22N 01°17' E 103°56'0 0.0
2016-Jun-04 10:16N 01°17' E 103°56'0 0.0
2016-Jun-04 09:31N 01°17' E 103°56'0 0.0
2016-Jun-04 08:22N 01°17' E 103°56'0 0.0
2016-Jun-04 07:22N 01°17' E 103°56'0 0.1
2016-Jun-04 06:25N 01°17' E 103°56'0 0.0
2016-Jun-04 05:31N 01°17' E 103°56'0 0.0
2016-Jun-04 04:28N 01°17' E 103°56'0 0.0
2016-Jun-04 03:31N 01°17' E 103°56'0 0.0
2016-Jun-04 02:16N 01°17' E 103°56'0 0.0
2016-Jun-04 01:31N 01°16' E 103°56'3 3.1
2016-Jun-04 00:33N 01°16' E 103°59'7 7.1
2016-Jun-03 23:33N 01°16' E 104°06'  
2016-May-29 00:29N 23°41' E 118°19'1211.8
2016-May-28 23:30N 23°48' E 118°28'1211.7
2016-May-28 22:28N 23°56' E 118°38'10110.2
2016-May-28 12:33N 25°03' E 120°03'  

Dump ship's entire track history